createdAt,value
2023-05-14T00:02:09.634Z,11.48
2023-05-14T00:04:37.747Z,11.45
2023-05-14T00:07:04.556Z,11.36
2023-05-14T00:09:32.039Z,11.31
2023-05-14T00:11:58.734Z,11.34
2023-05-14T00:14:25.417Z,11.30
2023-05-14T00:16:52.182Z,11.31
2023-05-14T00:19:19.014Z,11.36
2023-05-14T00:21:47.074Z,11.35
2023-05-14T00:24:13.856Z,11.36
2023-05-14T00:26:40.502Z,11.36
2023-05-14T00:29:07.154Z,11.38
2023-05-14T00:31:33.876Z,11.35
2023-05-14T00:34:00.588Z,11.38
2023-05-14T00:36:27.249Z,11.32
2023-05-14T00:38:55.345Z,11.30
2023-05-14T00:41:22.659Z,11.24
2023-05-14T00:43:49.316Z,11.23
2023-05-14T00:46:16.045Z,11.21
2023-05-14T00:48:42.775Z,11.20
2023-05-14T00:51:09.463Z,11.20
2023-05-14T00:53:36.243Z,11.17
2023-05-14T00:56:04.823Z,11.23
2023-05-14T00:58:31.521Z,11.15
2023-05-14T01:00:58.977Z,11.18
2023-05-14T01:03:25.744Z,11.13
2023-05-14T01:05:56.534Z,11.10
2023-05-14T01:08:28.146Z,11.08
2023-05-14T01:10:57.700Z,11.21
2023-05-14T01:13:27.753Z,11.20
2023-05-14T01:15:55.937Z,11.17
2023-05-14T01:18:22.645Z,11.23
2023-05-14T01:20:50.038Z,11.20
2023-05-14T01:23:18.120Z,11.27
2023-05-14T01:25:44.784Z,11.31
2023-05-14T01:28:13.547Z,11.25
2023-05-14T01:30:41.762Z,11.20
2023-05-14T01:33:10.343Z,11.17
2023-05-14T01:35:37.067Z,11.10
2023-05-14T01:38:04.733Z,11.11
2023-05-14T01:40:32.964Z,11.10
2023-05-14T01:42:59.815Z,11.18
2023-05-14T01:45:26.513Z,11.11
2023-05-14T01:47:53.580Z,11.10
2023-05-14T01:50:20.316Z,11.14
2023-05-14T01:52:46.997Z,11.07
2023-05-14T01:55:13.697Z,11.10
2023-05-14T01:57:41.775Z,11.14
2023-05-14T02:00:09.107Z,11.08
2023-05-14T02:02:35.868Z,11.07
2023-05-14T02:05:03.864Z,11.07
2023-05-14T02:07:31.546Z,11.11
2023-05-14T02:09:58.338Z,11.18
2023-05-14T02:12:25.158Z,11.11
2023-05-14T02:14:53.215Z,11.18
2023-05-14T02:17:19.930Z,11.14
2023-05-14T02:19:46.645Z,11.13
2023-05-14T02:22:13.404Z,11.14
2023-05-14T02:24:40.117Z,11.14
2023-05-14T02:27:06.839Z,11.17
2023-05-14T02:29:33.522Z,11.17
2023-05-14T02:32:01.537Z,11.13
2023-05-14T02:34:28.353Z,11.08
2023-05-14T02:36:54.985Z,11.10
2023-05-14T02:39:21.709Z,11.08
2023-05-14T02:41:48.373Z,11.04
2023-05-14T02:44:15.060Z,11.04
2023-05-14T02:46:41.803Z,11.00
2023-05-14T02:49:09.912Z,11.01
2023-05-14T02:51:36.627Z,10.94
2023-05-14T02:54:03.585Z,10.94
2023-05-14T02:56:30.254Z,10.92
2023-05-14T02:58:56.888Z,10.93
2023-05-14T03:01:24.145Z,10.93
2023-05-14T03:03:51.253Z,10.92
2023-05-14T03:06:19.909Z,10.89
2023-05-14T03:08:46.580Z,10.86
2023-05-14T03:11:13.262Z,10.87
2023-05-14T03:13:39.914Z,10.86
2023-05-14T03:16:07.060Z,10.83
2023-05-14T03:18:33.868Z,10.80
2023-05-14T03:21:00.513Z,10.90
2023-05-14T03:23:28.605Z,10.93
2023-05-14T03:25:55.272Z,10.89
2023-05-14T03:28:22.001Z,10.96
2023-05-14T03:30:48.721Z,10.93
2023-05-14T03:33:15.446Z,10.94
2023-05-14T03:35:42.080Z,10.92
2023-05-14T03:38:08.747Z,10.94
2023-05-14T03:40:36.898Z,10.96
2023-05-14T03:43:03.626Z,11.00
2023-05-14T03:45:30.387Z,11.00
2023-05-14T03:47:57.169Z,11.03
2023-05-14T03:50:24.120Z,11.06
2023-05-14T03:52:51.019Z,11.08
2023-05-14T03:55:17.802Z,11.08
2023-05-14T03:57:45.897Z,11.08
2023-05-14T04:00:13.494Z,11.15
2023-05-14T04:02:40.267Z,11.14
2023-05-14T04:05:07.711Z,11.13
2023-05-14T04:07:36.055Z,11.11
2023-05-14T04:10:04.368Z,11.13
2023-05-14T04:12:31.490Z,11.13
2023-05-14T04:14:59.556Z,11.10
2023-05-14T04:17:26.362Z,11.13
2023-05-14T04:19:53.092Z,11.14
2023-05-14T04:22:19.774Z,11.14
2023-05-14T04:24:46.606Z,11.13
2023-05-14T04:27:14.844Z,11.11
2023-05-14T04:29:41.457Z,11.10
2023-05-14T04:32:09.539Z,11.11
2023-05-14T04:34:36.392Z,11.06
2023-05-14T04:37:03.070Z,11.07
2023-05-14T04:39:29.763Z,11.08
2023-05-14T04:41:56.485Z,11.08
2023-05-14T04:44:23.156Z,11.07
2023-05-14T04:46:49.934Z,11.10
2023-05-14T04:49:18.041Z,11.10
2023-05-14T04:51:44.795Z,11.13
2023-05-14T04:54:11.594Z,11.17
2023-05-14T04:56:38.288Z,11.18
2023-05-14T04:59:05.138Z,11.15
2023-05-14T05:01:32.034Z,11.18
2023-05-14T05:03:58.780Z,11.23
2023-05-14T05:06:26.857Z,11.25
2023-05-14T05:08:53.563Z,11.31
2023-05-14T05:11:20.197Z,11.30
2023-05-14T05:13:46.884Z,11.30
2023-05-14T05:16:13.718Z,11.31
2023-05-14T05:18:40.496Z,11.36
2023-05-14T05:21:07.265Z,11.30
2023-05-14T05:23:35.427Z,11.34
2023-05-14T05:26:02.181Z,11.36
2023-05-14T05:28:28.840Z,11.41
2023-05-14T05:30:56.183Z,11.39
2023-05-14T05:33:22.884Z,11.41
2023-05-14T05:35:49.563Z,11.44
2023-05-14T05:38:16.320Z,11.41
2023-05-14T05:40:44.362Z,11.35
2023-05-14T05:43:11.020Z,11.36
2023-05-14T05:45:37.684Z,11.30
2023-05-14T05:48:04.970Z,11.30
2023-05-14T05:50:31.692Z,11.28
2023-05-14T05:52:58.418Z,11.24
2023-05-14T05:55:25.147Z,11.20
2023-05-14T05:57:53.236Z,11.17
2023-05-14T06:00:20.695Z,11.08
2023-05-14T06:02:47.438Z,11.11
2023-05-14T06:05:14.236Z,11.10
2023-05-14T06:07:40.937Z,11.13
2023-05-14T06:10:08.524Z,11.08
2023-05-14T06:12:35.304Z,11.06
2023-05-14T06:15:03.719Z,11.10
2023-05-14T06:17:30.419Z,11.08
2023-05-14T06:19:57.132Z,11.14
2023-05-14T06:22:23.802Z,11.17
2023-05-14T06:24:50.517Z,11.14
2023-05-14T06:27:17.308Z,11.20
2023-05-14T06:29:44.006Z,11.17
2023-05-14T06:32:12.134Z,11.15
2023-05-14T06:34:38.857Z,11.14
2023-05-14T06:37:06.025Z,11.17
2023-05-14T06:39:32.758Z,11.23
2023-05-14T06:41:59.413Z,11.20
2023-05-14T06:44:26.130Z,11.20
2023-05-14T06:46:52.770Z,11.30
2023-05-14T06:49:20.781Z,11.45
2023-05-14T06:51:47.524Z,11.44
2023-05-14T06:54:14.188Z,11.41
2023-05-14T06:56:40.836Z,11.52
2023-05-14T06:59:14.378Z,11.61
2023-05-14T07:01:41.176Z,11.69
2023-05-14T07:04:07.972Z,11.69
2023-05-14T18:03:03.004Z,12.27
2023-05-14T18:05:29.920Z,12.26
2023-05-14T18:07:56.609Z,12.27
2023-05-14T18:10:23.268Z,12.28
2023-05-14T18:12:50.028Z,12.26
2023-05-14T18:15:16.958Z,12.24
2023-05-14T18:17:43.701Z,12.34
2023-05-14T18:20:12.627Z,12.38
2023-05-14T18:22:39.325Z,12.34
2023-05-14T18:25:06.813Z,12.34
2023-05-14T18:27:33.598Z,12.34
2023-05-14T18:30:00.388Z,12.33
2023-05-14T18:32:27.119Z,12.33
2023-05-14T18:34:53.889Z,12.33
2023-05-14T18:37:22.116Z,12.31
2023-05-14T18:39:48.905Z,12.31
2023-05-14T18:42:15.648Z,12.34
2023-05-14T18:44:42.353Z,12.33
2023-05-14T18:47:08.999Z,12.31
2023-05-14T18:49:35.654Z,12.37
2023-05-14T18:52:02.373Z,12.34
2023-05-14T18:54:30.442Z,12.37
2023-05-14T18:56:57.161Z,12.33
2023-05-14T18:59:23.855Z,12.36
2023-05-14T19:01:50.699Z,12.40
2023-05-14T19:04:17.439Z,12.40
2023-05-14T19:06:44.078Z,12.38
2023-05-14T19:09:11.108Z,12.41
2023-05-14T19:11:39.129Z,12.40
2023-05-14T19:14:05.749Z,12.42
2023-05-14T19:16:32.512Z,12.42
2023-05-14T19:18:59.276Z,12.42
2023-05-14T19:21:25.994Z,12.44
2023-05-14T19:23:52.776Z,12.47
2023-05-14T19:26:19.482Z,12.41
2023-05-14T19:28:47.535Z,12.45
2023-05-14T19:31:14.323Z,12.44
2023-05-14T19:33:41.528Z,12.45
2023-05-14T19:36:08.269Z,12.42
2023-05-14T19:38:34.972Z,12.45
2023-05-14T19:41:01.678Z,12.44
2023-05-14T19:43:28.352Z,12.45
2023-05-14T19:45:56.456Z,12.47
2023-05-14T19:48:23.137Z,12.49
2023-05-14T19:50:49.823Z,12.45
2023-05-14T19:53:16.598Z,12.51
2023-05-14T19:55:43.234Z,12.49
2023-05-14T19:58:09.916Z,12.48
2023-05-14T20:00:36.637Z,12.48
2023-05-14T20:03:30.330Z,12.49
2023-05-14T20:05:57.077Z,12.49
2023-05-14T20:08:23.789Z,12.54
2023-05-14T20:10:51.682Z,12.48
2023-05-14T20:13:18.405Z,12.47
2023-05-14T20:15:45.257Z,12.48
2023-05-14T20:18:12.366Z,12.51
2023-05-14T20:20:40.621Z,12.45
2023-05-14T20:23:07.311Z,12.45
2023-05-14T20:25:34.353Z,12.47
2023-05-14T20:28:01.365Z,12.48
2023-05-14T20:30:28.050Z,12.49
2023-05-14T20:32:54.727Z,12.58
2023-05-14T20:35:21.597Z,12.69
2023-05-14T20:37:49.651Z,12.78
2023-05-14T20:40:16.467Z,12.88
2023-05-14T20:42:43.270Z,12.93
2023-05-14T20:45:10.958Z,12.99
2023-05-14T20:47:37.716Z,12.96
2023-05-14T20:50:04.943Z,12.89
2023-05-14T20:52:31.796Z,12.86
2023-05-14T20:55:01.822Z,12.86
2023-05-14T20:57:29.078Z,12.81
2023-05-14T20:59:55.718Z,12.82
2023-05-14T21:02:22.481Z,12.75
2023-05-14T21:04:49.255Z,12.74
2023-05-14T21:07:15.979Z,12.76
2023-05-14T21:09:42.708Z,12.75
2023-05-14T21:12:12.014Z,12.76
2023-05-14T21:14:38.929Z,12.74
2023-05-14T21:17:05.697Z,12.72
2023-05-14T21:19:33.731Z,12.68
2023-05-14T21:22:00.411Z,12.71
2023-05-14T21:24:27.104Z,12.67
2023-05-14T21:26:53.822Z,12.67
2023-05-14T21:29:21.888Z,12.68
2023-05-14T21:31:48.597Z,12.67
2023-05-14T21:34:15.290Z,12.65
2023-05-14T21:36:42.362Z,12.64
2023-05-14T21:39:08.991Z,12.65
2023-05-14T21:41:35.703Z,12.68
2023-05-14T21:44:02.390Z,12.67
2023-05-14T21:46:30.407Z,12.65
2023-05-14T21:48:57.228Z,12.65
2023-05-14T21:51:24.184Z,12.69
2023-05-14T21:53:50.819Z,12.76
2023-05-14T21:56:17.500Z,12.71
2023-05-14T21:58:44.446Z,12.71
2023-05-14T22:01:11.147Z,12.75
2023-05-14T22:03:39.503Z,12.68
2023-05-14T22:06:07.671Z,12.74
2023-05-14T22:08:34.339Z,12.72
2023-05-14T22:11:01.053Z,12.76
2023-05-14T22:13:27.721Z,12.78
2023-05-14T22:16:01.347Z,12.79
2023-05-14T22:18:40.047Z,12.76
2023-05-14T22:21:06.781Z,12.75
2023-05-14T22:23:33.521Z,12.74
2023-05-14T22:26:00.229Z,12.75
2023-05-14T22:28:26.935Z,12.72
2023-05-14T22:30:53.684Z,12.79
2023-05-14T22:33:20.425Z,12.82
2023-05-14T22:35:48.473Z,12.84
2023-05-14T22:38:15.149Z,12.78
2023-05-14T22:40:42.075Z,12.82
2023-05-14T22:43:08.730Z,12.76
2023-05-14T22:45:35.401Z,12.78
2023-05-14T22:48:02.529Z,12.81
2023-05-14T22:50:29.266Z,12.81
2023-05-14T22:52:57.290Z,12.74
2023-05-14T22:55:24.219Z,12.75
2023-05-14T22:57:51.086Z,12.78
2023-05-14T23:00:18.029Z,12.71
2023-05-14T23:02:44.771Z,12.71
2023-05-14T23:05:11.437Z,12.71
2023-05-14T23:07:38.133Z,12.72
2023-05-14T23:10:07.213Z,12.74
2023-05-14T23:12:33.900Z,12.68
2023-05-14T23:15:00.568Z,12.68
2023-05-14T23:17:27.404Z,12.72
2023-05-14T23:19:54.330Z,12.65
2023-05-14T23:22:21.123Z,12.71
2023-05-14T23:24:48.187Z,12.65
2023-05-14T23:27:16.515Z,12.69
2023-05-14T23:29:43.245Z,12.71
2023-05-14T23:32:10.100Z,12.68
2023-05-14T23:34:36.925Z,12.67
2023-05-14T23:37:03.675Z,12.69
2023-05-14T23:39:30.368Z,12.75
2023-05-14T23:41:57.031Z,12.69
2023-05-14T23:44:25.063Z,12.67
2023-05-14T23:46:51.793Z,12.64
2023-05-14T23:49:18.427Z,12.67
2023-05-14T23:51:45.101Z,12.67
2023-05-14T23:54:11.828Z,12.64
2023-05-14T23:56:38.594Z,12.65
2023-05-14T23:59:05.263Z,12.62
